Terminal Aerodrome Forecast
Issued by NWS

Home | Current Version | Previous Version | Text Only | Print | Product List | Glossary On
Versions: 1 2 3 4 5 6 7 8 9 10 11 12 13 14
213
FTUS46 KPDT 301720
TAFRDM
TAF
KRDM 301720Z 3018/3118 27005KT P6SM SKC
     FM302000 32008G15KT P6SM SKC
     FM302200 32012G20KT P6SM SKC
     FM310600 VRB05KT P6SM SKC=

USA.gov is the U.S. government's official web portal to all federal, state and local government web resources and services.